Time;durP1;ratioP1;P1;durP2;ratioP2;P2;SDS_P1;SDS_P2;PMS_P1;PMS_P2;Temp;Humidity;BMP_temperature;BMP_pressure;BME280_temperature;BME280_humidity;BME280_pressure;Samples;Min_cycle;Max_cycle;Signal;HPM_P1;HPM_P2
2022/11/21 00:00:30;;;;;;;6.13;5.82;;;;;;;;;;4961334;28;20591;-70
2022/11/21 00:03:00;;;;;;;5.80;5.50;;;;;;;;;;4960818;28;20046;-69
2022/11/21 00:05:27;;;;;;;6.20;5.82;;;;;;;;;;4973027;28;20556;-70
2022/11/21 00:07:53;;;;;;;5.97;5.68;;;;;;;;;;4961442;28;20031;-70
2022/11/21 00:10:19;;;;;;;6.50;5.80;;;;;;;;;;4958014;28;20046;-70
2022/11/21 00:12:45;;;;;;;6.43;6.03;;;;;;;;;;4964456;28;20039;-70
2022/11/21 00:15:10;;;;;;;6.25;5.95;;;;;;;;;;4963968;28;20428;-70
2022/11/21 00:17:36;;;;;;;6.03;5.68;;;;;;;;;;4962623;28;20070;-70
2022/11/21 00:20:02;;;;;;;5.88;5.47;;;;;;;;;;4960846;28;20070;-70
2022/11/21 00:22:27;;;;;;;5.80;5.50;;;;;;;;;;4967607;28;20037;-70
2022/11/21 00:24:53;;;;;;;5.68;5.38;;;;;;;;;;4969771;28;20050;-70
2022/11/21 00:27:18;;;;;;;5.88;5.50;;;;;;;;;;4967035;28;20039;-69
2022/11/21 00:29:44;;;;;;;5.80;5.50;;;;;;;;;;4961386;28;20090;-70
2022/11/21 00:32:09;;;;;;;5.80;5.50;;;;;;;;;;4963653;28;20032;-70
2022/11/21 00:34:35;;;;;;;5.70;5.40;;;;;;;;;;4963155;28;20042;-69
2022/11/21 00:37:00;;;;;;;5.78;5.38;;;;;;;;;;4961384;28;20809;-69
2022/11/21 00:39:26;;;;;;;5.57;5.32;;;;;;;;;;4958780;28;20042;-69
2022/11/21 00:41:52;;;;;;;5.78;5.47;;;;;;;;;;4974778;28;20572;-70
2022/11/21 00:44:17;;;;;;;5.28;5.07;;;;;;;;;;4973072;28;20050;-69
2022/11/21 00:46:43;;;;;;;5.50;5.20;;;;;;;;;;4963661;28;20038;-69
2022/11/21 00:49:08;;;;;;;5.68;5.38;;;;;;;;;;4964645;28;20034;-69
2022/11/21 00:51:34;;;;;;;5.95;5.65;;;;;;;;;;4966049;28;20049;-69
2022/11/21 00:53:59;;;;;;;5.40;5.13;;;;;;;;;;4967809;28;20502;-70
2022/11/21 00:56:25;;;;;;;5.55;5.25;;;;;;;;;;4959845;28;20038;-70
2022/11/21 00:58:50;;;;;;;6.03;5.72;;;;;;;;;;4969124;28;20048;-70
2022/11/21 01:01:16;;;;;;;5.85;5.55;;;;;;;;;;4963212;28;20118;-70
2022/11/21 01:03:42;;;;;;;5.57;5.32;;;;;;;;;;4965699;28;20506;-70
2022/11/21 01:06:10;;;;;;;6.20;5.90;;;;;;;;;;4968094;28;20129;-70
2022/11/21 01:08:37;;;;;;;6.30;6.00;;;;;;;;;;4968490;28;20043;-70
2022/11/21 01:11:08;;;;;;;5.70;5.43;;;;;;;;;;4970333;28;20112;-70
2022/11/21 01:13:35;;;;;;;6.40;5.90;;;;;;;;;;4958657;28;20082;-70
2022/11/21 01:16:03;;;;;;;6.05;5.75;;;;;;;;;;4972847;28;20076;-70
2022/11/21 01:18:28;;;;;;;6.10;5.80;;;;;;;;;;4970546;28;20848;-70
2022/11/21 01:20:58;;;;;;;6.30;5.90;;;;;;;;;;4966988;28;20046;-70
2022/11/21 01:23:24;;;;;;;6.25;5.88;;;;;;;;;;4964039;28;20039;-70
2022/11/21 01:25:50;;;;;;;5.80;5.50;;;;;;;;;;4971370;28;20042;-70
2022/11/21 01:28:15;;;;;;;6.50;6.10;;;;;;;;;;4969229;28;20823;-70
2022/11/21 01:30:41;;;;;;;6.25;5.95;;;;;;;;;;4961663;28;20117;-70
2022/11/21 01:33:06;;;;;;;6.43;5.97;;;;;;;;;;4969077;28;20038;-70
2022/11/21 01:35:32;;;;;;;5.93;5.63;;;;;;;;;;4968487;28;20042;-70
2022/11/21 01:37:57;;;;;;;6.45;6.07;;;;;;;;;;4965724;28;20038;-69
2022/11/21 01:40:23;;;;;;;6.50;6.00;;;;;;;;;;4962569;28;20045;-70
2022/11/21 01:43:13;;;;;;;6.35;5.95;;;;;;;;;;4974197;28;20045;-70
2022/11/21 01:45:59;;;;;;;6.30;5.80;;;;;;;;;;4958712;28;20049;-69
2022/11/21 01:48:44;;;;;;;6.30;6.00;;;;;;;;;;4957582;28;20027;-69
2022/11/21 01:51:36;;;;;;;6.30;5.85;;;;;;;;;;4972318;28;20039;-69
2022/11/21 01:54:22;;;;;;;6.00;5.70;;;;;;;;;;4968482;28;20153;-69
2022/11/21 01:56:54;;;;;;;6.10;5.70;;;;;;;;;;4959676;28;20827;-69
2022/11/21 02:00:05;;;;;;;5.82;5.53;;;;;;;;;;4963389;28;20093;-69
2022/11/21 02:02:42;;;;;;;6.13;5.47;;;;;;;;;;4966632;28;20061;-70
2022/11/21 02:05:12;;;;;;;6.30;5.90;;;;;;;;;;4970664;28;20042;-70
2022/11/21 02:07:40;;;;;;;6.22;5.72;;;;;;;;;;4969849;28;20670;-70
2022/11/21 02:10:07;;;;;;;7.25;5.82;;;;;;;;;;4970622;28;20041;-70
2022/11/21 02:12:39;;;;;;;8.18;6.20;;;;;;;;;;4968727;28;20043;-70
2022/11/21 02:15:06;;;;;;;6.68;6.28;;;;;;;;;;4972144;28;20066;-69
2022/11/21 02:17:32;;;;;;;6.68;6.13;;;;;;;;;;4972267;28;20034;-70
2022/11/21 02:20:00;;;;;;;6.70;6.15;;;;;;;;;;4967003;28;20047;-70
2022/11/21 02:22:48;;;;;;;6.90;6.25;;;;;;;;;;4964084;28;20113;-70
2022/11/21 02:25:29;;;;;;;6.40;5.85;;;;;;;;;;4963612;28;20049;-70
2022/11/21 02:28:00;;;;;;;6.20;5.80;;;;;;;;;;4968459;28;20113;-70
2022/11/21 02:30:27;;;;;;;7.50;6.03;;;;;;;;;;4957660;28;20764;-70
2022/11/21 02:32:54;;;;;;;6.57;5.97;;;;;;;;;;4961028;28;20031;-70
2022/11/21 02:35:20;;;;;;;6.55;6.15;;;;;;;;;;4971476;28;20038;-70
2022/11/21 02:37:57;;;;;;;6.13;5.82;;;;;;;;;;4969787;28;20048;-70
2022/11/21 02:40:28;;;;;;;6.40;5.68;;;;;;;;;;4966269;28;20045;-70
2022/11/21 02:42:56;;;;;;;5.90;5.60;;;;;;;;;;4961849;28;20097;-70
2022/11/21 02:45:27;;;;;;;6.47;5.97;;;;;;;;;;4970967;28;20034;-70
2022/11/21 02:47:54;;;;;;;6.50;6.00;;;;;;;;;;4968079;28;20120;-70
2022/11/21 02:50:29;;;;;;;7.00;6.35;;;;;;;;;;4960113;28;20053;-70
2022/11/21 02:52:54;;;;;;;6.38;6.07;;;;;;;;;;4966227;28;20030;-70
2022/11/21 02:55:21;;;;;;;7.03;6.43;;;;;;;;;;4965080;28;20026;-70
2022/11/21 02:57:47;;;;;;;6.28;5.93;;;;;;;;;;4968524;28;20035;-70
2022/11/21 03:00:12;;;;;;;6.07;5.65;;;;;;;;;;4958666;28;20494;-70
2022/11/21 03:02:38;;;;;;;6.85;6.35;;;;;;;;;;4981183;28;20513;-70
2022/11/21 03:05:07;;;;;;;6.60;6.10;;;;;;;;;;4975828;28;20112;-70
2022/11/21 03:07:33;;;;;;;6.60;6.20;;;;;;;;;;4974472;28;20042;-71
2022/11/21 03:09:59;;;;;;;6.40;6.00;;;;;;;;;;4966747;28;20027;-70
2022/11/21 03:12:25;;;;;;;6.75;6.15;;;;;;;;;;4976729;28;20031;-70
2022/11/21 03:14:50;;;;;;;6.60;6.18;;;;;;;;;;4977358;28;20066;-70
2022/11/21 03:17:16;;;;;;;6.13;5.78;;;;;;;;;;4966663;28;20062;-70
2022/11/21 03:19:42;;;;;;;6.18;5.88;;;;;;;;;;4972753;28;20034;-70
2022/11/21 03:22:07;;;;;;;5.82;5.53;;;;;;;;;;4975124;28;20038;-70
2022/11/21 03:24:33;;;;;;;6.07;5.78;;;;;;;;;;4968037;28;20109;-70
2022/11/21 03:26:58;;;;;;;6.35;5.85;;;;;;;;;;4966772;28;20031;-70
2022/11/21 03:29:24;;;;;;;5.75;5.45;;;;;;;;;;4980545;28;20054;-70
2022/11/21 03:31:49;;;;;;;6.45;6.05;;;;;;;;;;4973984;28;20437;-70
2022/11/21 03:34:15;;;;;;;5.68;5.38;;;;;;;;;;4970638;28;20441;-70
2022/11/21 03:36:40;;;;;;;6.13;5.47;;;;;;;;;;4969711;28;20541;-70
2022/11/21 03:39:06;;;;;;;6.13;5.72;;;;;;;;;;4972223;28;20661;-70
2022/11/21 03:41:32;;;;;;;6.22;5.82;;;;;;;;;;4967012;28;20046;-70
2022/11/21 03:44:06;;;;;;;6.25;5.95;;;;;;;;;;4964080;28;20042;-70
2022/11/21 03:46:34;;;;;;;6.32;5.93;;;;;;;;;;4977803;28;20062;-70
2022/11/21 03:49:00;;;;;;;6.20;5.90;;;;;;;;;;4971655;28;20034;-70
2022/11/21 03:51:26;;;;;;;6.25;5.85;;;;;;;;;;4960130;28;20101;-70
2022/11/21 03:53:52;;;;;;;6.78;6.20;;;;;;;;;;4972464;28;20035;-70
2022/11/21 03:56:18;;;;;;;7.57;6.35;;;;;;;;;;4979633;28;20068;-70
2022/11/21 03:58:44;;;;;;;6.53;6.10;;;;;;;;;;4967383;28;20498;-70
2022/11/21 04:01:11;;;;;;;6.18;5.78;;;;;;;;;;4965557;28;20041;-70
2022/11/21 04:03:39;;;;;;;6.40;5.88;;;;;;;;;;4957996;28;20437;-70
2022/11/21 04:06:04;;;;;;;6.82;6.43;;;;;;;;;;4965437;28;20117;-70
2022/11/21 04:08:31;;;;;;;9.63;6.07;;;;;;;;;;4957811;28;20121;-71
2022/11/21 04:10:57;;;;;;;6.10;5.80;;;;;;;;;;4967628;28;20057;-70
2022/11/21 04:13:22;;;;;;;6.63;6.13;;;;;;;;;;4969031;28;20035;-71
2022/11/21 04:15:49;;;;;;;6.75;6.15;;;;;;;;;;4961326;28;20110;-71
2022/11/21 04:18:14;;;;;;;6.30;5.97;;;;;;;;;;4960169;28;20042;-70
2022/11/21 04:20:40;;;;;;;6.50;6.00;;;;;;;;;;4963900;28;20672;-70
2022/11/21 04:23:06;;;;;;;6.13;5.82;;;;;;;;;;4962464;28;20066;-70
2022/11/21 04:25:32;;;;;;;13.43;6.65;;;;;;;;;;4960674;28;20045;-70
2022/11/21 04:27:59;;;;;;;6.75;6.10;;;;;;;;;;4969682;28;20039;-70
2022/11/21 04:30:25;;;;;;;6.10;5.70;;;;;;;;;;4969284;28;20045;-70
2022/11/21 04:32:51;;;;;;;5.32;5.05;;;;;;;;;;4965444;28;20046;-70
2022/11/21 04:35:17;;;;;;;6.03;5.53;;;;;;;;;;4966369;28;20105;-70
2022/11/21 04:37:43;;;;;;;6.30;5.80;;;;;;;;;;4967194;28;21039;-70
2022/11/21 04:40:10;;;;;;;6.30;5.80;;;;;;;;;;4961915;28;20072;-70
2022/11/21 04:42:35;;;;;;;5.85;5.55;;;;;;;;;;4972962;28;20041;-70
2022/11/21 04:45:01;;;;;;;6.05;5.65;;;;;;;;;;4961753;28;20035;-70
2022/11/21 04:47:26;;;;;;;5.90;5.60;;;;;;;;;;4956056;28;20045;-70
2022/11/21 04:49:52;;;;;;;6.60;6.10;;;;;;;;;;4971389;28;20114;-70
2022/11/21 04:52:17;;;;;;;6.43;6.03;;;;;;;;;;4963353;28;20042;-70
2022/11/21 04:54:43;;;;;;;5.95;5.65;;;;;;;;;;4966850;28;20019;-69
2022/11/21 04:57:09;;;;;;;6.30;5.68;;;;;;;;;;4962717;28;20818;-70
2022/11/21 04:59:34;;;;;;;6.47;5.97;;;;;;;;;;4963520;28;20038;-70
2022/11/21 05:02:02;;;;;;;6.43;6.03;;;;;;;;;;4959686;28;20113;-70
2022/11/21 05:04:27;;;;;;;6.70;6.20;;;;;;;;;;4972393;28;20117;-70
2022/11/21 05:06:53;;;;;;;6.40;6.10;;;;;;;;;;4965054;28;20438;-70
2022/11/21 05:09:18;;;;;;;5.85;5.55;;;;;;;;;;4963505;28;20042;-70
2022/11/21 05:14:28;;;;;;;6.18;5.80;;;;;;;;;;4961903;28;20039;-70
2022/11/21 05:16:54;;;;;;;6.60;6.10;;;;;;;;;;4963825;28;20042;-71
2022/11/21 05:19:19;;;;;;;6.20;5.70;;;;;;;;;;4961200;28;20047;-70
2022/11/21 05:21:45;;;;;;;6.68;6.18;;;;;;;;;;4958358;28;20039;-70
2022/11/21 05:24:10;;;;;;;6.00;5.60;;;;;;;;;;4971846;28;20541;-70
2022/11/21 05:26:36;;;;;;;6.65;6.00;;;;;;;;;;4972536;28;20041;-70
2022/11/21 05:29:03;;;;;;;6.10;5.70;;;;;;;;;;4963482;28;20038;-70
2022/11/21 05:31:28;;;;;;;6.57;6.03;;;;;;;;;;4974420;28;20050;-70
2022/11/21 05:33:54;;;;;;;6.70;5.78;;;;;;;;;;4966308;28;20872;-70
2022/11/21 05:36:20;;;;;;;6.43;6.00;;;;;;;;;;4968547;28;20493;-70
2022/11/21 05:38:45;;;;;;;6.65;6.18;;;;;;;;;;4962833;28;20063;-70
2022/11/21 05:41:11;;;;;;;6.40;6.00;;;;;;;;;;4966013;28;20669;-70
2022/11/21 05:43:46;;;;;;;6.45;6.10;;;;;;;;;;4972565;28;20039;-70
2022/11/21 05:46:17;;;;;;;6.45;6.05;;;;;;;;;;4958892;28;20309;-70
2022/11/21 05:48:43;;;;;;;6.45;6.05;;;;;;;;;;4963627;28;20561;-70
2022/11/21 05:51:09;;;;;;;7.65;7.05;;;;;;;;;;4967778;28;20430;-70
2022/11/21 05:53:35;;;;;;;6.68;6.07;;;;;;;;;;4963649;28;20039;-70
2022/11/21 05:56:06;;;;;;;6.68;6.18;;;;;;;;;;4965704;28;20042;-70
2022/11/21 05:58:31;;;;;;;6.93;6.53;;;;;;;;;;4961405;28;20050;-70
2022/11/21 06:00:58;;;;;;;6.53;6.13;;;;;;;;;;4972959;28;20050;-70
2022/11/21 06:03:29;;;;;;;8.05;7.43;;;;;;;;;;4967229;28;20081;-70
2022/11/21 06:06:08;;;;;;;9.18;8.27;;;;;;;;;;4963135;28;20137;-70
2022/11/21 06:08:36;;;;;;;6.90;6.50;;;;;;;;;;4965416;28;20126;-71
2022/11/21 06:11:03;;;;;;;6.50;6.10;;;;;;;;;;4970579;28;20034;-70
2022/11/21 06:13:28;;;;;;;6.32;6.03;;;;;;;;;;4961049;28;20043;-70
2022/11/21 06:16:05;;;;;;;6.25;5.80;;;;;;;;;;4962960;28;20033;-70
2022/11/21 06:18:33;;;;;;;6.10;5.80;;;;;;;;;;4958030;28;20046;-70
2022/11/21 06:21:03;;;;;;;6.30;5.90;;;;;;;;;;4968012;28;20533;-70
2022/11/21 06:23:29;;;;;;;6.15;5.80;;;;;;;;;;4969605;28;20065;-70
2022/11/21 06:25:56;;;;;;;6.03;5.72;;;;;;;;;;4968936;28;20133;-71
2022/11/21 06:28:21;;;;;;;18.50;5.80;;;;;;;;;;4967053;28;20433;-70
2022/11/21 06:30:50;;;;;;;5.30;5.10;;;;;;;;;;4964652;28;20194;-71
2022/11/21 06:33:16;;;;;;;6.20;5.70;;;;;;;;;;4962647;28;20089;-71
2022/11/21 06:35:42;;;;;;;6.30;6.00;;;;;;;;;;4964578;28;20043;-71
2022/11/21 06:38:08;;;;;;;6.22;5.93;;;;;;;;;;4968266;28;20053;-71
2022/11/21 06:40:34;;;;;;;6.60;6.30;;;;;;;;;;4969073;28;20442;-70
2022/11/21 06:43:00;;;;;;;6.20;5.90;;;;;;;;;;4966552;28;20252;-70
2022/11/21 06:45:25;;;;;;;6.22;5.82;;;;;;;;;;4972553;28;20085;-71
2022/11/21 06:47:51;;;;;;;6.28;5.82;;;;;;;;;;4974348;28;20490;-71
2022/11/21 06:50:17;;;;;;;6.30;5.43;;;;;;;;;;4972581;28;20317;-70
2022/11/21 06:52:42;;;;;;;6.50;6.10;;;;;;;;;;4965581;28;20038;-70
2022/11/21 06:55:09;;;;;;;6.25;5.85;;;;;;;;;;4963345;28;20046;-72
2022/11/21 06:57:35;;;;;;;6.53;6.03;;;;;;;;;;4970838;28;20043;-71
2022/11/21 07:00:01;;;;;;;6.32;5.90;;;;;;;;;;4971724;28;20042;-70
2022/11/21 07:02:26;;;;;;;6.18;5.88;;;;;;;;;;4962176;28;20049;-72
2022/11/21 07:04:52;;;;;;;6.38;6.07;;;;;;;;;;4961621;28;20039;-71
2022/11/21 07:07:18;;;;;;;6.15;5.78;;;;;;;;;;4963549;28;20041;-70
2022/11/21 07:09:46;;;;;;;6.13;5.82;;;;;;;;;;4965458;28;20631;-71
2022/11/21 07:14:55;;;;;;;6.80;6.30;;;;;;;;;;4979133;28;20023;-70
2022/11/21 07:17:21;;;;;;;6.40;6.00;;;;;;;;;;4974075;28;20482;-71
2022/11/21 07:19:46;;;;;;;6.28;5.88;;;;;;;;;;4970379;28;20096;-71
2022/11/21 07:22:12;;;;;;;5.68;5.38;;;;;;;;;;4968394;28;20054;-70
2022/11/21 07:24:37;;;;;;;6.35;6.05;;;;;;;;;;4974580;28;20121;-70
2022/11/21 07:27:03;;;;;;;6.40;6.00;;;;;;;;;;4974624;28;20118;-71
2022/11/21 07:29:29;;;;;;;6.68;6.20;;;;;;;;;;4967230;28;20092;-70
2022/11/21 07:31:54;;;;;;;6.20;5.90;;;;;;;;;;4970934;28;20041;-71
2022/11/21 07:34:20;;;;;;;6.05;5.75;;;;;;;;;;4972240;28;20391;-70
2022/11/21 07:36:45;;;;;;;6.55;6.15;;;;;;;;;;4971126;28;20551;-71
2022/11/21 07:39:11;;;;;;;6.50;5.90;;;;;;;;;;4971329;28;20391;-71
2022/11/21 07:41:37;;;;;;;5.95;5.55;;;;;;;;;;4967040;28;20133;-70
2022/11/21 07:44:03;;;;;;;6.78;6.38;;;;;;;;;;4972010;28;20035;-71
2022/11/21 07:46:28;;;;;;;5.90;5.60;;;;;;;;;;4973288;28;20089;-70
2022/11/21 07:48:54;;;;;;;5.70;5.40;;;;;;;;;;4963892;28;20045;-71
2022/11/21 07:51:19;;;;;;;6.15;5.75;;;;;;;;;;4961419;28;20518;-71
2022/11/21 07:53:45;;;;;;;6.78;6.03;;;;;;;;;;4968703;28;20484;-71
2022/11/21 07:56:10;;;;;;;6.88;6.28;;;;;;;;;;4967909;28;20029;-70
2022/11/21 07:58:36;;;;;;;6.28;5.88;;;;;;;;;;4975573;28;20039;-71
2022/11/21 08:01:04;;;;;;;5.90;5.60;;;;;;;;;;4964613;28;20536;-71
2022/11/21 08:03:30;;;;;;;6.00;5.60;;;;;;;;;;4971925;28;20479;-71
2022/11/21 08:05:59;;;;;;;6.65;6.25;;;;;;;;;;4963246;28;20609;-70
2022/11/21 08:08:25;;;;;;;6.25;5.93;;;;;;;;;;4965997;28;20478;-71
2022/11/21 08:10:50;;;;;;;7.05;6.47;;;;;;;;;;4971494;28;20045;-71
2022/11/21 08:13:16;;;;;;;6.55;5.95;;;;;;;;;;4972445;28;20050;-71
2022/11/21 08:15:41;;;;;;;6.40;5.90;;;;;;;;;;4974285;28;20052;-70
2022/11/21 08:18:12;;;;;;;6.72;6.32;;;;;;;;;;4971738;28;20042;-71
2022/11/21 08:20:38;;;;;;;7.07;6.45;;;;;;;;;;4965433;28;20054;-71
2022/11/21 08:23:05;;;;;;;6.72;6.32;;;;;;;;;;4971969;28;20050;-71
2022/11/21 08:25:32;;;;;;;7.28;6.63;;;;;;;;;;4982706;28;20602;-71
2022/11/21 08:27:58;;;;;;;6.97;6.57;;;;;;;;;;4970715;28;20536;-71
2022/11/21 08:30:24;;;;;;;6.60;6.25;;;;;;;;;;4969832;28;20042;-71
2022/11/21 08:32:50;;;;;;;7.30;6.70;;;;;;;;;;4979308;28;20027;-70
2022/11/21 08:35:16;;;;;;;8.15;7.30;;;;;;;;;;4974377;28;20042;-71
2022/11/21 08:37:41;;;;;;;6.90;6.50;;;;;;;;;;4972922;28;20037;-72
2022/11/21 08:40:07;;;;;;;7.65;7.05;;;;;;;;;;4966599;28;20490;-72
2022/11/21 08:42:33;;;;;;;8.45;6.90;;;;;;;;;;4974314;28;20098;-71
2022/11/21 08:44:59;;;;;;;7.05;6.60;;;;;;;;;;4973345;28;20035;-71
2022/11/21 08:47:24;;;;;;;6.90;6.40;;;;;;;;;;4967012;28;20042;-71
2022/11/21 08:49:50;;;;;;;7.40;6.82;;;;;;;;;;4972870;28;20047;-71
2022/11/21 08:52:16;;;;;;;7.38;6.85;;;;;;;;;;4975486;28;20039;-72
2022/11/21 08:54:43;;;;;;;7.18;6.68;;;;;;;;;;4965417;28;20466;-72
2022/11/21 08:57:09;;;;;;;6.75;6.28;;;;;;;;;;4971324;28;20522;-72
2022/11/21 08:59:34;;;;;;;6.93;6.38;;;;;;;;;;4975333;28;20047;-71
2022/11/21 09:02:00;;;;;;;7.40;6.72;;;;;;;;;;4963679;28;20422;-71
2022/11/21 09:04:26;;;;;;;7.18;6.57;;;;;;;;;;4964358;28;20322;-71
2022/11/21 09:06:51;;;;;;;8.13;7.20;;;;;;;;;;4967013;28;20043;-71
2022/11/21 09:09:17;;;;;;;8.48;7.70;;;;;;;;;;4973682;28;20078;-72
2022/11/21 09:11:42;;;;;;;8.82;8.02;;;;;;;;;;4975693;28;20039;-71
2022/11/21 09:19:36;;;;;;;8.18;7.55;;;;;;;;;;4970543;28;20031;-69
2022/11/21 09:22:02;;;;;;;8.68;7.97;;;;;;;;;;4973059;28;20066;-68
2022/11/21 09:24:27;;;;;;;8.38;7.78;;;;;;;;;;4975424;28;20038;-68
2022/11/21 09:26:53;;;;;;;8.40;7.65;;;;;;;;;;4978999;28;20125;-68
2022/11/21 09:29:18;;;;;;;7.70;7.10;;;;;;;;;;4968777;28;20049;-70
2022/11/21 09:31:44;;;;;;;8.27;7.68;;;;;;;;;;4964776;28;20043;-71
2022/11/21 09:34:10;;;;;;;8.45;7.70;;;;;;;;;;4962951;28;20094;-68
2022/11/21 09:36:36;;;;;;;8.45;7.65;;;;;;;;;;4968692;28;20042;-71
2022/11/21 09:39:02;;;;;;;8.10;7.50;;;;;;;;;;4965364;28;20126;-70
2022/11/21 09:41:53;;;;;;;7.63;7.13;;;;;;;;;;4968079;28;20469;-71
2022/11/21 09:44:49;;;;;;;8.10;7.35;;;;;;;;;;4961025;28;20118;-70
2022/11/21 09:47:35;;;;;;;8.50;7.65;;;;;;;;;;4955831;28;20133;-71
2022/11/21 09:50:05;;;;;;;9.88;8.88;;;;;;;;;;4968670;28;20039;-70
2022/11/21 09:52:50;;;;;;;;;;;;;;;;;;4960208;28;20380;-71
2022/11/21 09:55:34;;;;;;;7.78;7.28;;;;;;;;;;4957979;28;20421;-71
2022/11/21 09:58:04;;;;;;;8.15;7.45;;;;;;;;;;4973530;28;20310;-71
2022/11/21 10:00:30;;;;;;;8.35;7.55;;;;;;;;;;4975183;28;20038;-71
2022/11/21 10:02:56;;;;;;;10.50;8.95;;;;;;;;;;4977722;28;20589;-71
2022/11/21 10:05:48;;;;;;;9.27;8.38;;;;;;;;;;4963846;28;20513;-71
2022/11/21 10:08:26;;;;;;;8.82;8.02;;;;;;;;;;4968586;28;20031;-68
2022/11/21 10:11:21;;;;;;;13.23;8.18;;;;;;;;;;4970943;28;20043;-69
2022/11/21 10:14:13;;;;;;;8.13;7.53;;;;;;;;;;4973402;28;20070;-71
2022/11/21 10:17:17;;;;;;;8.60;7.93;;;;;;;;;;4967765;28;20039;-71
2022/11/21 10:19:55;;;;;;;8.10;7.50;;;;;;;;;;4979229;28;20117;-71
2022/11/21 10:22:48;;;;;;;8.45;7.75;;;;;;;;;;4974139;28;20054;-71
2022/11/21 10:25:26;;;;;;;9.70;8.70;;;;;;;;;;4978104;28;20383;-70
2022/11/21 10:28:14;;;;;;;7.82;7.18;;;;;;;;;;4976647;28;20483;-71
2022/11/21 10:30:44;;;;;;;8.68;7.88;;;;;;;;;;4973311;28;20038;-70
2022/11/21 10:33:35;;;;;;;7.95;7.18;;;;;;;;;;4970578;28;20130;-71
2022/11/21 10:36:13;;;;;;;9.15;8.35;;;;;;;;;;4973523;28;20078;-70
2022/11/21 10:38:41;;;;;;;8.98;8.07;;;;;;;;;;4970034;28;20130;-70
2022/11/21 10:41:22;;;;;;;8.63;7.85;;;;;;;;;;4967118;28;20223;-70
2022/11/21 10:46:56;;;;;;;9.35;8.50;;;;;;;;;;4980874;28;20035;-70
2022/11/21 10:49:24;;;;;;;10.43;8.27;;;;;;;;;;4972615;28;20042;-71
2022/11/21 10:52:09;;;;;;;9.55;8.60;;;;;;;;;;4966640;28;20027;-71
2022/11/21 10:55:03;;;;;;;9.32;8.52;;;;;;;;;;4983664;28;20104;-70
2022/11/21 10:57:38;;;;;;;12.27;9.48;;;;;;;;;;4967096;28;20042;-71
2022/11/21 11:00:12;;;;;;;11.45;8.48;;;;;;;;;;4973119;28;20037;-70
2022/11/21 11:03:06;;;;;;;9.73;8.93;;;;;;;;;;4965650;28;20062;-71
2022/11/21 11:05:36;;;;;;;8.85;8.15;;;;;;;;;;4970621;28;20050;-70
2022/11/21 11:08:04;;;;;;;9.13;8.10;;;;;;;;;;4966236;28;20035;-70
2022/11/21 11:10:31;;;;;;;9.85;8.85;;;;;;;;;;4960750;28;20039;-71
2022/11/21 11:16:14;;;;;;;9.13;8.18;;;;;;;;;;4960917;28;20051;-71
2022/11/21 11:19:00;;;;;;;8.57;8.00;;;;;;;;;;4967740;28;20434;-68
2022/11/21 11:21:40;;;;;;;10.02;9.10;;;;;;;;;;4964160;28;20381;-70
2022/11/21 11:24:20;;;;;;;7.88;7.25;;;;;;;;;;4968557;28;20036;-71
2022/11/21 11:26:46;;;;;;;10.63;8.25;;;;;;;;;;4967368;28;20491;-71
2022/11/21 11:29:26;;;;;;;8.25;7.50;;;;;;;;;;4967990;28;20235;-71
2022/11/21 11:31:54;;;;;;;11.35;7.80;;;;;;;;;;4972384;28;20043;-71
2022/11/21 11:34:21;;;;;;;8.73;7.95;;;;;;;;;;4968283;28;20129;-71
2022/11/21 11:37:13;;;;;;;13.55;9.57;;;;;;;;;;4967317;28;20081;-71
2022/11/21 11:39:54;;;;;;;8.88;6.85;;;;;;;;;;4971183;28;20429;-72
2022/11/21 11:48:15;;;;;;;13.73;10.50;;;;;;;;;;4964827;28;20042;-71
2022/11/21 11:50:47;;;;;;;10.20;9.18;;;;;;;;;;4969940;28;20039;-71
2022/11/21 11:53:30;;;;;;;8.07;7.38;;;;;;;;;;4962510;28;20041;-70
2022/11/21 11:56:10;;;;;;;8.75;8.02;;;;;;;;;;4965407;28;20039;-70
2022/11/21 11:58:38;;;;;;;8.95;8.18;;;;;;;;;;4965915;28;20038;-71
2022/11/21 12:01:23;;;;;;;8.55;7.85;;;;;;;;;;4969926;28;20085;-71
2022/11/21 12:04:03;;;;;;;9.00;8.10;;;;;;;;;;4955417;28;20039;-71
2022/11/21 12:06:50;;;;;;;8.18;7.65;;;;;;;;;;4954854;28;20065;-70
2022/11/21 12:09:38;;;;;;;8.25;7.53;;;;;;;;;;4965166;28;20565;-71
2022/11/21 12:12:22;;;;;;;8.10;7.60;;;;;;;;;;4952581;28;20062;-70
2022/11/21 12:17:52;;;;;;;8.70;7.90;;;;;;;;;;4965335;28;20052;-70
2022/11/21 12:20:47;;;;;;;8.57;7.85;;;;;;;;;;4967933;28;20070;-70
2022/11/21 12:23:14;;;;;;;8.43;7.93;;;;;;;;;;4965900;28;20522;-70
2022/11/21 12:26:11;;;;;;;8.50;7.72;;;;;;;;;;4968588;28;20050;-70
2022/11/21 12:29:00;;;;;;;8.23;7.53;;;;;;;;;;4964069;28;20050;-70
2022/11/21 12:31:33;;;;;;;8.32;7.72;;;;;;;;;;4959100;28;20077;-70
2022/11/21 12:34:20;;;;;;;8.10;7.60;;;;;;;;;;4965584;28;20039;-70
2022/11/21 12:36:57;;;;;;;7.68;6.90;;;;;;;;;;4965457;28;20034;-70
2022/11/21 12:39:52;;;;;;;9.20;8.35;;;;;;;;;;4963886;28;20070;-70
2022/11/21 12:42:49;;;;;;;8.27;7.68;;;;;;;;;;4974924;28;20030;-71
2022/11/21 12:45:34;;;;;;;8.02;7.53;;;;;;;;;;4966861;28;20413;-70
2022/11/21 12:54:29;;;;;;;8.48;7.95;;;;;;;;;;4977156;28;20062;-70
2022/11/21 12:57:10;;;;;;;8.63;8.00;;;;;;;;;;4965647;28;20101;-70
2022/11/21 13:00:08;;;;;;;9.07;8.27;;;;;;;;;;4967684;28;20031;-70
2022/11/21 13:02:51;;;;;;;8.73;7.93;;;;;;;;;;4966256;28;20070;-70
2022/11/21 13:05:37;;;;;;;9.15;8.45;;;;;;;;;;4965803;28;20502;-70
2022/11/21 13:08:14;;;;;;;9.63;8.70;;;;;;;;;;4969557;28;20046;-72
2022/11/21 13:10:47;;;;;;;11.63;9.40;;;;;;;;;;4966273;28;20690;-72
2022/11/21 13:13:29;;;;;;;8.02;7.32;;;;;;;;;;4960181;28;20489;-72
2022/11/21 13:16:04;;;;;;;9.05;8.15;;;;;;;;;;4975338;28;20039;-72
2022/11/21 13:18:40;;;;;;;8.70;8.10;;;;;;;;;;4967202;28;20046;-71
2022/11/21 13:21:42;;;;;;;10.27;8.02;;;;;;;;;;4977060;28;20038;-72
2022/11/21 13:24:08;;;;;;;8.43;7.57;;;;;;;;;;4971717;28;20328;-72
2022/11/21 13:26:37;;;;;;;8.23;7.60;;;;;;;;;;4974816;28;20479;-72
2022/11/21 13:29:11;;;;;;;8.35;7.65;;;;;;;;;;4969823;28;20628;-72
2022/11/21 13:31:37;;;;;;;8.45;7.65;;;;;;;;;;4969366;28;20446;-72
2022/11/21 13:34:04;;;;;;;7.60;7.10;;;;;;;;;;4972419;28;20046;-72
2022/11/21 13:36:32;;;;;;;8.48;7.65;;;;;;;;;;4969076;28;20104;-72
2022/11/21 13:38:58;;;;;;;9.02;8.35;;;;;;;;;;4967685;28;20031;-72
2022/11/21 13:44:32;;;;;;;8.60;8.00;;;;;;;;;;4965202;28;20031;-72
2022/11/21 13:47:08;;;;;;;8.77;7.90;;;;;;;;;;4969112;28;20506;-72
2022/11/21 13:49:43;;;;;;;8.38;7.68;;;;;;;;;;4970621;28;20493;-72
2022/11/21 13:52:37;;;;;;;8.73;7.88;;;;;;;;;;4967953;28;20066;-72
2022/11/21 13:55:08;;;;;;;7.90;7.43;;;;;;;;;;4951482;28;20038;-72
2022/11/21 13:58:13;;;;;;;8.27;7.65;;;;;;;;;;4969177;28;20392;-72
2022/11/21 14:01:01;;;;;;;7.80;7.30;;;;;;;;;;4971127;28;20039;-72
2022/11/21 14:03:42;;;;;;;9.03;7.43;;;;;;;;;;4964781;28;20034;-72
2022/11/21 14:06:36;;;;;;;9.23;8.00;;;;;;;;;;4968867;28;20053;-72
2022/11/21 14:09:45;;;;;;;8.80;8.02;;;;;;;;;;4966054;28;20689;-72
2022/11/21 14:12:33;;;;;;;8.57;7.75;;;;;;;;;;4904534;29;20134;-72
2022/11/21 14:14:59;;;;;;;11.73;7.63;;;;;;;;;;4907483;29;20121;-72
2022/11/21 14:17:38;;;;;;;8.55;7.85;;;;;;;;;;4922100;29;20199;-72
2022/11/21 14:20:12;;;;;;;;;;;;;;;;;;4910796;29;20059;-72
2022/11/21 14:22:46;;;;;;;10.32;7.63;;;;;;;;;;4906003;29;20354;-72
2022/11/21 14:25:18;;;;;;;7.80;7.07;;;;;;;;;;4914255;29;20044;-72
2022/11/21 14:27:47;;;;;;;8.07;7.57;;;;;;;;;;4913216;29;20095;-72
2022/11/21 14:30:30;;;;;;;8.48;7.63;;;;;;;;;;4907211;29;20036;-72
2022/11/21 14:32:56;;;;;;;8.90;8.10;;;;;;;;;;4911236;29;20208;-72
2022/11/21 14:35:22;;;;;;;7.97;7.35;;;;;;;;;;4906781;29;20123;-72
2022/11/21 14:37:49;;;;;;;8.50;7.70;;;;;;;;;;4902890;29;20118;-72
2022/11/21 14:40:23;;;;;;;9.57;7.93;;;;;;;;;;4907551;29;20059;-72
2022/11/21 14:42:49;;;;;;;8.32;7.70;;;;;;;;;;4913794;29;20083;-72
2022/11/21 14:45:22;;;;;;;12.63;7.88;;;;;;;;;;4923437;28;20080;-72
2022/11/21 14:47:48;;;;;;;9.45;8.40;;;;;;;;;;4966623;28;20042;-72
2022/11/21 14:50:22;;;;;;;8.40;7.55;;;;;;;;;;4973700;28;20127;-72
2022/11/21 14:52:55;;;;;;;9.32;8.50;;;;;;;;;;4978224;28;20065;-72
2022/11/21 14:55:25;;;;;;;10.30;9.40;;;;;;;;;;4968379;28;20037;-72
2022/11/21 14:57:51;;;;;;;11.98;9.45;;;;;;;;;;4967962;28;20089;-71
2022/11/21 15:00:23;;;;;;;10.60;9.52;;;;;;;;;;4979731;28;20046;-72
2022/11/21 15:02:54;;;;;;;10.40;9.60;;;;;;;;;;4969930;28;20077;-72
2022/11/21 15:05:22;;;;;;;10.55;9.23;;;;;;;;;;4970220;28;20053;-72
2022/11/21 15:07:48;;;;;;;13.48;8.50;;;;;;;;;;4960091;28;20035;-72
2022/11/21 15:10:19;;;;;;;10.20;8.80;;;;;;;;;;4970401;28;20446;-73
2022/11/21 15:12:58;;;;;;;13.77;10.13;;;;;;;;;;4972655;28;20517;-72
2022/11/21 15:15:29;;;;;;;11.73;10.63;;;;;;;;;;4969786;28;20055;-72
2022/11/21 15:17:57;;;;;;;17.20;12.80;;;;;;;;;;4964736;28;20422;-72
2022/11/21 15:20:25;;;;;;;13.65;12.25;;;;;;;;;;4967592;28;20046;-72
2022/11/21 15:22:55;;;;;;;13.15;11.77;;;;;;;;;;4971349;28;20046;-72
2022/11/21 15:25:25;;;;;;;13.32;8.27;;;;;;;;;;4968565;28;20406;-72
2022/11/21 15:28:01;;;;;;;10.45;9.45;;;;;;;;;;4975472;28;20038;-72
2022/11/21 15:30:29;;;;;;;12.35;11.30;;;;;;;;;;4967151;28;20035;-72
2022/11/21 15:33:15;;;;;;;9.20;8.40;;;;;;;;;;4974244;28;20554;-72
2022/11/21 15:35:45;;;;;;;9.02;8.43;;;;;;;;;;4961440;28;20049;-72
2022/11/21 15:38:23;;;;;;;9.88;9.18;;;;;;;;;;4969605;28;20051;-72
2022/11/21 15:41:11;;;;;;;9.38;8.68;;;;;;;;;;4969914;28;20038;-72